createdAt,value
2022-08-05T00:04:37.749Z,15.18
2022-08-05T00:10:41.757Z,7.43
2022-08-05T00:16:52.908Z,10.18
2022-08-05T00:22:59.590Z,9.13
2022-08-05T00:29:04.019Z,13.90
2022-08-05T00:35:07.576Z,11.23
2022-08-05T00:41:11.633Z,12.88
2022-08-05T00:47:16.357Z,8.32
2022-08-05T00:54:01.242Z,8.85
2022-08-05T00:59:44.245Z,9.07
2022-08-05T01:05:45.956Z,14.45
2022-08-05T01:11:49.000Z,8.25
2022-08-05T01:17:53.513Z,7.90
2022-08-05T01:23:55.983Z,9.32
2022-08-05T01:29:58.227Z,7.90
2022-08-05T01:35:59.750Z,7.97
2022-08-05T01:42:01.209Z,9.02
2022-08-05T01:48:03.298Z,8.32
2022-08-05T01:54:11.876Z,9.73
2022-08-05T02:00:19.497Z,7.35
2022-08-05T02:06:36.928Z,7.78
2022-08-05T02:12:39.575Z,9.57
2022-08-05T02:18:42.076Z,5.80
2022-08-05T02:24:43.636Z,6.55
2022-08-05T02:30:54.761Z,6.68
2022-08-05T02:36:58.062Z,7.28
2022-08-05T02:42:59.556Z,7.30
2022-08-05T02:49:01.075Z,5.47
2022-08-05T02:55:05.177Z,6.95
2022-08-05T03:01:07.954Z,5.85
2022-08-05T03:07:40.530Z,6.70
2022-08-05T03:13:51.532Z,7.07
2022-08-05T03:19:55.800Z,5.70
2022-08-05T03:26:04.598Z,9.45
2022-08-05T03:32:21.603Z,6.20
2022-08-05T03:38:33.191Z,10.65
2022-08-05T03:44:38.779Z,7.43
2022-08-05T03:50:40.752Z,8.25
2022-08-05T03:56:46.943Z,7.63
2022-08-05T04:02:57.807Z,8.70
2022-08-05T04:09:00.394Z,7.80
2022-08-05T04:15:01.877Z,7.90
2022-08-05T04:21:05.341Z,8.95
2022-08-05T04:27:07.271Z,9.55
2022-08-05T04:33:09.126Z,6.38
2022-08-05T04:39:11.099Z,6.18
2022-08-05T04:45:22.892Z,14.13
2022-08-05T04:51:32.883Z,25.50
2022-08-05T04:57:37.206Z,15.70
2022-08-05T05:03:42.225Z,20.85
2022-08-05T05:09:44.382Z,24.15
2022-08-05T05:15:56.141Z,23.23
2022-08-05T05:22:22.978Z,27.13
2022-08-05T05:28:22.452Z,28.30
2022-08-05T05:34:27.318Z,31.33
2022-08-05T05:40:28.931Z,29.77
2022-08-05T05:46:31.650Z,68.15
2022-08-05T05:52:37.923Z,21.88
2022-08-05T05:58:42.176Z,20.25
2022-08-05T06:04:44.106Z,23.83
2022-08-05T06:10:52.877Z,28.85
2022-08-05T06:16:54.880Z,48.15
2022-08-05T06:22:58.435Z,50.97
2022-08-05T06:29:00.228Z,42.92
2022-08-05T06:35:05.925Z,38.17
2022-08-05T06:41:16.950Z,36.75
2022-08-05T06:48:11.867Z,38.72
2022-08-05T06:53:40.322Z,32.50
2022-08-05T06:59:42.325Z,37.08
2022-08-05T07:05:57.037Z,35.00
2022-08-05T07:12:00.530Z,26.90
2022-08-05T07:18:09.774Z,18.80
2022-08-05T07:24:13.788Z,24.77
2022-08-05T07:30:24.083Z,18.20
2022-08-05T07:36:33.781Z,33.38
2022-08-05T07:42:36.328Z,17.90
2022-08-05T07:49:03.953Z,22.52
2022-08-05T07:55:00.072Z,18.73
2022-08-05T08:01:01.712Z,19.38
2022-08-05T08:07:07.951Z,16.88
2022-08-05T08:13:09.773Z,25.75
2022-08-05T08:19:37.956Z,22.77
2022-08-05T08:26:00.260Z,20.90
2022-08-05T08:31:56.988Z,14.95
2022-08-05T08:37:58.987Z,15.98
2022-08-05T08:45:22.151Z,24.52
2022-08-05T08:50:32.784Z,16.15
2022-08-05T08:56:47.605Z,12.32
2022-08-05T09:02:51.361Z,16.75
2022-08-05T09:08:53.300Z,17.67
2022-08-05T09:14:58.635Z,19.30
2022-08-05T09:21:11.506Z,24.60
2022-08-05T09:27:13.409Z,26.00
2022-08-05T09:33:35.660Z,33.55
2022-08-05T09:39:41.550Z,40.83
2022-08-05T09:46:07.735Z,30.75
2022-08-05T09:52:09.715Z,22.33
2022-08-05T09:58:13.034Z,21.60
2022-08-05T10:04:16.150Z,116.30
2022-08-05T10:10:28.058Z,134.30
2022-08-05T10:16:30.750Z,81.55
2022-08-05T10:22:34.987Z,28.17
2022-08-05T10:28:39.796Z,56.88
2022-08-05T10:34:43.877Z,48.30
2022-08-05T10:40:46.387Z,48.65
2022-08-05T10:46:50.767Z,37.25
2022-08-05T10:53:00.141Z,40.35
2022-08-05T10:59:12.129Z,34.97
2022-08-05T11:05:14.428Z,38.60
2022-08-05T11:11:20.226Z,40.17
2022-08-05T11:17:59.038Z,34.00
2022-08-05T11:24:02.879Z,46.70
2022-08-05T11:30:05.614Z,35.58
2022-08-05T11:36:11.885Z,47.88
2022-08-05T11:42:18.568Z,46.53
2022-08-05T11:48:21.560Z,37.45
2022-08-05T11:54:33.779Z,42.10
2022-08-05T12:00:38.539Z,42.28
2022-08-05T12:06:40.698Z,38.17
2022-08-05T12:12:59.388Z,47.53
2022-08-05T12:19:01.697Z,38.95
2022-08-05T12:25:03.836Z,39.97
2022-08-05T12:31:06.269Z,38.60
2022-08-05T12:37:16.227Z,31.98
2022-08-05T12:43:23.237Z,43.70
2022-08-05T12:49:25.593Z,32.00
2022-08-05T12:55:28.404Z,39.38
2022-08-05T13:02:01.592Z,42.25
2022-08-05T13:07:57.809Z,52.17
2022-08-05T13:14:05.790Z,51.78
2022-08-05T13:20:09.066Z,56.05
2022-08-05T13:26:13.064Z,63.45
2022-08-05T13:32:15.249Z,56.08
2022-08-05T13:38:36.125Z,58.75
2022-08-05T13:44:44.611Z,69.30
2022-08-05T13:50:47.116Z,65.97
2022-08-05T13:56:51.582Z,60.35
2022-08-05T14:02:53.409Z,55.75
2022-08-05T14:08:54.965Z,57.72
2022-08-05T14:15:01.098Z,46.22
2022-08-05T14:21:23.822Z,52.03
2022-08-05T14:27:47.472Z,54.92
2022-08-05T14:33:59.287Z,48.22
2022-08-05T14:40:03.154Z,46.90
2022-08-05T14:46:05.913Z,46.03
2022-08-05T14:52:10.121Z,38.28
2022-08-05T14:58:14.198Z,40.92
2022-08-05T15:04:16.006Z,39.42
2022-08-05T15:10:17.884Z,42.45
2022-08-05T15:16:30.841Z,39.17
2022-08-05T15:22:33.983Z,34.50
2022-08-05T15:28:35.800Z,38.97
2022-08-05T15:34:44.452Z,27.52
2022-08-05T15:41:21.235Z,21.15
2022-08-05T15:47:07.346Z,13.70
2022-08-05T15:53:09.611Z,17.60
2022-08-05T15:59:21.720Z,52.55
2022-08-05T16:05:23.591Z,29.05
2022-08-05T16:11:42.884Z,26.95
2022-08-05T16:17:47.594Z,49.78
2022-08-05T16:24:01.637Z,42.25
2022-08-05T16:30:04.899Z,61.70
2022-08-05T16:36:07.135Z,61.28
2022-08-05T16:42:14.382Z,77.45
2022-08-05T16:48:25.006Z,64.25
2022-08-05T16:54:32.912Z,51.60
2022-08-05T17:00:37.903Z,55.63
2022-08-05T17:06:41.984Z,62.88
2022-08-05T17:12:51.883Z,30.15
2022-08-05T17:18:53.925Z,52.33
2022-08-05T17:24:57.449Z,41.53
2022-08-05T17:30:59.800Z,35.05
2022-08-05T17:37:27.358Z,42.20
2022-08-05T17:43:53.026Z,41.45
2022-08-05T17:50:04.016Z,37.58
2022-08-05T17:56:06.715Z,41.97
2022-08-05T18:02:09.915Z,39.85
2022-08-05T18:08:12.441Z,35.22
2022-08-05T18:14:20.642Z,31.95
2022-08-05T18:20:29.513Z,49.22
2022-08-05T18:26:33.622Z,36.83
2022-08-05T18:32:35.159Z,33.65
2022-08-05T18:38:40.697Z,51.47
2022-08-05T18:44:51.791Z,24.42
2022-08-05T18:52:05.398Z,26.77
2022-08-05T18:57:43.650Z,45.75
2022-08-05T19:03:55.429Z,35.97
2022-08-05T19:09:58.213Z,31.65
2022-08-05T19:16:03.843Z,34.08
2022-08-05T19:22:05.458Z,26.33
2022-08-05T19:28:06.895Z,24.15
2022-08-05T19:34:08.776Z,26.95
2022-08-05T19:40:10.755Z,33.45
2022-08-05T19:46:16.812Z,29.65
2022-08-05T19:52:32.490Z,21.13
2022-08-05T19:58:53.344Z,45.03
2022-08-05T20:04:59.000Z,30.83
2022-08-05T20:11:01.205Z,36.90
2022-08-05T20:17:06.588Z,45.58
2022-08-05T20:23:08.512Z,41.42
2022-08-05T20:29:27.670Z,39.78
2022-08-05T20:35:29.389Z,40.72
2022-08-05T20:41:44.308Z,31.23
2022-08-05T20:47:46.824Z,32.28
2022-08-05T20:53:56.296Z,41.25
2022-08-05T21:00:19.891Z,32.90
2022-08-05T21:06:28.570Z,34.97
2022-08-05T21:12:31.277Z,38.90
2022-08-05T21:18:34.821Z,27.45
2022-08-05T21:24:37.418Z,32.90
2022-08-05T21:30:39.159Z,28.33
2022-08-05T21:36:42.601Z,30.67
2022-08-05T21:42:48.551Z,27.10
2022-08-05T21:48:53.609Z,29.95
2022-08-05T21:55:06.418Z,27.27
2022-08-05T22:01:08.695Z,24.10
2022-08-05T22:07:12.381Z,24.98
2022-08-05T22:14:19.360Z,22.67
2022-08-05T22:19:57.534Z,26.20
2022-08-05T22:26:15.776Z,23.83
2022-08-05T22:32:17.731Z,20.35
2022-08-05T22:38:19.762Z,14.90
2022-08-05T22:44:21.323Z,13.55
2022-08-05T22:50:26.767Z,13.48
2022-08-05T22:56:30.103Z,18.10
2022-08-05T23:02:32.713Z,14.65
2022-08-05T23:08:34.425Z,15.65
2022-08-05T23:14:37.594Z,15.63
2022-08-05T23:20:39.188Z,15.02
2022-08-05T23:26:41.252Z,17.58
2022-08-05T23:32:45.647Z,15.45
2022-08-05T23:38:47.102Z,15.07
2022-08-05T23:44:54.483Z,18.23
2022-08-05T23:50:56.092Z,15.05
2022-08-05T23:57:03.722Z,15.07
